Time;durP1;ratioP1;P1;durP2;ratioP2;P2;SDS_P1;SDS_P2;PMS_P1;PMS_P2;Temp;Humidity;BMP_temperature;BMP_pressure;BME280_temperature;BME280_humidity;BME280_pressure;Samples;Min_cycle;Max_cycle;Signal;HPM_P1;HPM_P2
2021/09/27 00:01:44;;;;;;;19.55;18.05;;;14.90;93.20;;;;;;5011225;29;20050;-70
2021/09/27 00:04:16;;;;;;;20.13;18.48;;;14.90;92.90;;;;;;5009733;29;20050;-71
2021/09/27 00:06:48;;;;;;;18.67;17.23;;;14.80;93.00;;;;;;4992130;29;20144;-71
2021/09/27 00:09:20;;;;;;;18.98;17.48;;;14.80;93.60;;;;;;4994590;29;20090;-71
2021/09/27 00:11:52;;;;;;;19.85;18.35;;;14.70;93.60;;;;;;5011388;29;20476;-71
2021/09/27 00:14:24;;;;;;;19.08;17.67;;;14.70;93.50;;;;;;5010675;29;20058;-72
2021/09/27 00:16:56;;;;;;;18.50;17.10;;;14.70;93.50;;;;;;5008071;29;20239;-71
2021/09/27 00:19:28;;;;;;;18.30;16.75;;;14.70;93.80;;;;;;5011343;29;20124;-71
2021/09/27 00:21:59;;;;;;;19.35;17.85;;;14.70;93.70;;;;;;5009897;29;20190;-71
2021/09/27 00:24:32;;;;;;;19.50;18.00;;;14.70;93.80;;;;;;5008637;29;20054;-71
2021/09/27 00:27:04;;;;;;;19.17;17.77;;;14.70;93.80;;;;;;4989731;29;20232;-71
2021/09/27 00:29:35;;;;;;;18.52;17.02;;;14.70;93.60;;;;;;4978403;29;20106;-70
2021/09/27 00:32:07;;;;;;;19.55;18.05;;;14.70;93.30;;;;;;4979732;29;20049;-70
2021/09/27 00:34:39;;;;;;;19.15;17.65;;;14.60;92.80;;;;;;5010397;29;20065;-71
2021/09/27 00:37:11;;;;;;;19.73;18.02;;;14.60;92.50;;;;;;5006919;29;20060;-71
2021/09/27 00:39:43;;;;;;;19.55;17.95;;;14.60;92.80;;;;;;4994125;29;20136;-70
2021/09/27 00:42:15;;;;;;;19.08;17.63;;;14.60;92.60;;;;;;5007526;29;20061;-70
2021/09/27 00:44:47;;;;;;;19.13;17.63;;;14.60;92.80;;;;;;4992125;29;20069;-70
2021/09/27 00:47:18;;;;;;;19.08;17.60;;;14.50;92.80;;;;;;5009057;29;20146;-71
2021/09/27 00:49:51;;;;;;;19.38;17.90;;;14.50;92.70;;;;;;4994223;29;20125;-70
2021/09/27 00:52:25;;;;;;;19.52;18.02;;;14.50;92.30;;;;;;4992512;29;20046;-69
2021/09/27 00:54:57;;;;;;;18.95;17.40;;;14.50;92.10;;;;;;5011158;29;20045;-70
2021/09/27 00:57:29;;;;;;;18.75;17.30;;;14.50;92.50;;;;;;5008815;29;20164;-69
2021/09/27 01:00:04;;;;;;;18.85;17.45;;;14.50;92.80;;;;;;5009274;29;20109;-70
2021/09/27 01:02:36;;;;;;;19.35;17.65;;;14.50;93.60;;;;;;5009825;29;20059;-69
2021/09/27 01:05:11;;;;;;;18.73;17.33;;;14.40;93.40;;;;;;5008456;29;20069;-70
2021/09/27 01:08:11;;;;;;;19.30;17.80;;;14.40;93.30;;;;;;5009144;29;20045;-70
2021/09/27 01:11:09;;;;;;;19.70;18.07;;;14.30;92.90;;;;;;5009042;29;20046;-70
2021/09/27 01:13:51;;;;;;;20.52;18.63;;;14.30;92.80;;;;;;4977374;29;20050;-70
2021/09/27 01:16:50;;;;;;;20.25;18.75;;;14.30;92.40;;;;;;5008660;29;20053;-69
2021/09/27 01:19:28;;;;;;;19.20;17.70;;;14.30;92.10;;;;;;5010329;29;20053;-69
2021/09/27 01:22:12;;;;;;;20.05;18.45;;;14.20;91.90;;;;;;5008595;29;20050;-69
2021/09/27 01:25:20;;;;;;;20.05;18.33;;;14.20;92.10;;;;;;5006996;29;20068;-70
2021/09/27 01:28:25;;;;;;;19.30;17.80;;;14.20;92.70;;;;;;5007767;29;20148;-71
2021/09/27 01:31:19;;;;;;;19.20;17.70;;;14.10;93.10;;;;;;5010094;29;20531;-70
2021/09/27 01:34:26;;;;;;;19.42;17.92;;;14.00;93.60;;;;;;5008550;29;20046;-70
2021/09/27 01:37:08;;;;;;;19.52;17.95;;;14.00;93.90;;;;;;5007301;29;20154;-71
2021/09/27 01:39:56;;;;;;;19.27;17.88;;;14.00;93.90;;;;;;5007289;29;20050;-71
2021/09/27 01:42:46;;;;;;;19.10;17.58;;;14.00;94.20;;;;;;5014033;29;20416;-70
2021/09/27 01:45:30;;;;;;;19.58;18.08;;;13.90;93.70;;;;;;5007756;29;20397;-70
2021/09/27 01:48:12;;;;;;;19.63;18.13;;;13.80;93.40;;;;;;5010000;29;20527;-70
2021/09/27 01:50:59;;;;;;;20.70;19.00;;;13.80;93.00;;;;;;5007351;29;20132;-70
2021/09/27 01:53:37;;;;;;;19.80;18.20;;;13.80;92.40;;;;;;5014178;29;20144;-71
2021/09/27 01:56:24;;;;;;;20.73;18.85;;;13.90;92.10;;;;;;5009605;29;20063;-71
2021/09/27 01:59:07;;;;;;;20.20;18.60;;;13.80;92.00;;;;;;5013027;29;20164;-71
2021/09/27 02:02:08;;;;;;;19.88;18.20;;;13.80;92.20;;;;;;5011538;29;20045;-71
2021/09/27 02:04:47;;;;;;;19.65;18.13;;;13.80;92.80;;;;;;5011494;29;20069;-70
2021/09/27 02:07:21;;;;;;;19.80;18.30;;;13.80;92.60;;;;;;5010169;29;20110;-71
2021/09/27 02:10:04;;;;;;;19.88;18.17;;;13.80;92.60;;;;;;5010636;29;20470;-71
2021/09/27 02:12:44;;;;;;;19.88;18.27;;;13.80;92.30;;;;;;5012867;29;20140;-70
2021/09/27 02:15:30;;;;;;;19.70;18.20;;;13.80;92.50;;;;;;5011238;29;20587;-70
2021/09/27 02:18:19;;;;;;;18.85;17.35;;;13.80;92.30;;;;;;5012531;29;20141;-71
2021/09/27 02:21:01;;;;;;;19.58;17.88;;;13.80;92.10;;;;;;5010517;29;20098;-70
2021/09/27 02:23:41;;;;;;;19.38;17.67;;;13.80;92.10;;;;;;5012268;29;20137;-70
2021/09/27 02:26:15;;;;;;;19.35;17.75;;;13.70;92.30;;;;;;5010461;29;20634;-70
2021/09/27 02:28:47;;;;;;;19.02;17.63;;;13.60;92.20;;;;;;4995459;29;20445;-70
2021/09/27 02:31:29;;;;;;;19.10;17.60;;;13.60;92.10;;;;;;5013119;29;20136;-71
2021/09/27 02:34:28;;;;;;;18.90;17.40;;;13.60;92.20;;;;;;5013089;29;20097;-72
2021/09/27 02:37:10;;;;;;;17.88;16.48;;;13.60;92.50;;;;;;5010594;29;20074;-71
2021/09/27 02:40:01;;;;;;;18.23;16.90;;;13.60;92.00;;;;;;5010428;29;20061;-71
2021/09/27 02:42:33;;;;;;;19.67;17.90;;;13.60;91.80;;;;;;5009533;29;20045;-71
2021/09/27 02:45:08;;;;;;;20.05;18.35;;;13.50;91.90;;;;;;5012753;29;20120;-72
2021/09/27 02:47:47;;;;;;;19.83;18.15;;;13.50;90.80;;;;;;5010954;29;20522;-71
2021/09/27 02:50:23;;;;;;;19.63;18.13;;;13.40;90.60;;;;;;5010958;29;20162;-71
2021/09/27 02:52:56;;;;;;;19.60;18.00;;;13.30;91.30;;;;;;4996413;29;20420;-71
2021/09/27 02:55:58;;;;;;;19.83;18.17;;;13.30;91.60;;;;;;4993262;29;20483;-71
2021/09/27 02:58:30;;;;;;;19.73;17.95;;;13.20;91.30;;;;;;5010471;29;20054;-71
2021/09/27 03:01:20;;;;;;;19.40;17.90;;;13.20;91.20;;;;;;5010301;29;20041;-72
2021/09/27 03:03:58;;;;;;;18.83;17.35;;;13.10;91.40;;;;;;5011520;29;20038;-71
2021/09/27 03:06:30;;;;;;;19.30;17.77;;;13.10;91.30;;;;;;5009277;29;20813;-71
2021/09/27 03:09:23;;;;;;;18.73;17.23;;;13.10;91.50;;;;;;5010291;29;20050;-71
2021/09/27 03:12:10;;;;;;;19.75;18.08;;;13.10;91.50;;;;;;4997029;29;20045;-71
2021/09/27 03:15:00;;;;;;;18.83;17.35;;;13.00;91.40;;;;;;5010715;29;20050;-71
2021/09/27 03:17:53;;;;;;;19.27;17.63;;;13.00;91.60;;;;;;5011939;29;20049;-70
2021/09/27 03:21:01;;;;;;;18.33;16.92;;;13.10;91.40;;;;;;4999664;29;20057;-71
2021/09/27 03:24:21;;;;;;;17.95;16.50;;;13.00;91.10;;;;;;5010156;29;20052;-70
2021/09/27 03:27:14;;;;;;;19.02;17.52;;;13.10;91.10;;;;;;5009943;29;20141;-71
2021/09/27 03:29:46;;;;;;;19.20;17.67;;;13.10;91.00;;;;;;5011109;29;20070;-71
2021/09/27 03:32:36;;;;;;;18.55;17.05;;;13.00;91.00;;;;;;5010489;29;20144;-71
2021/09/27 03:35:36;;;;;;;18.67;17.23;;;12.90;91.80;;;;;;5009361;29;20058;-71
2021/09/27 03:38:14;;;;;;;19.10;17.42;;;12.90;91.40;;;;;;5010361;29;20157;-71
2021/09/27 03:41:09;;;;;;;19.42;17.88;;;12.70;91.70;;;;;;4993863;29;20049;-71
2021/09/27 03:44:08;;;;;;;18.90;17.25;;;12.70;92.30;;;;;;5010537;29;20062;-72
2021/09/27 03:47:13;;;;;;;18.00;16.60;;;12.70;92.20;;;;;;5009835;29;20050;-71
2021/09/27 03:49:54;;;;;;;18.33;16.85;;;12.70;91.90;;;;;;5009363;29;20056;-70
2021/09/27 03:52:58;;;;;;;18.08;16.67;;;12.60;91.20;;;;;;5010403;29;20097;-70
2021/09/27 03:55:57;;;;;;;18.70;17.15;;;12.50;91.80;;;;;;5011734;29;20780;-71
2021/09/27 03:58:34;;;;;;;17.98;16.48;;;12.60;92.10;;;;;;5011397;29;20128;-70
2021/09/27 04:01:28;;;;;;;19.50;17.90;;;12.60;92.30;;;;;;5009392;29;20073;-70
2021/09/27 04:04:21;;;;;;;19.35;17.70;;;12.50;92.00;;;;;;5009308;29;20353;-71
2021/09/27 04:07:11;;;;;;;19.33;17.63;;;12.50;92.10;;;;;;5008051;29;20141;-69
2021/09/27 04:09:57;;;;;;;18.92;17.42;;;12.60;91.80;;;;;;5013504;29;20073;-71
2021/09/27 04:12:58;;;;;;;19.48;17.88;;;12.60;92.10;;;;;;5011189;29;20060;-69
2021/09/27 04:15:42;;;;;;;18.88;17.38;;;12.50;92.10;;;;;;5009173;29;20156;-69
2021/09/27 04:18:25;;;;;;;18.25;16.85;;;12.60;91.80;;;;;;5010223;29;20061;-68
2021/09/27 04:21:12;;;;;;;18.13;16.63;;;12.50;91.20;;;;;;5008500;29;20046;-70
2021/09/27 04:24:17;;;;;;;18.08;16.48;;;12.50;91.70;;;;;;5009294;29;20178;-70
2021/09/27 04:26:48;;;;;;;18.75;17.25;;;12.50;91.70;;;;;;5007719;29;20087;-69
2021/09/27 04:29:54;;;;;;;19.33;17.63;;;12.60;91.90;;;;;;5010110;29;20046;-69
2021/09/27 04:32:53;;;;;;;18.40;16.90;;;12.60;91.70;;;;;;5008896;29;20081;-69
2021/09/27 04:35:31;;;;;;;19.10;17.65;;;12.60;92.20;;;;;;5009422;29;20057;-69
2021/09/27 04:38:05;;;;;;;18.52;17.02;;;12.50;92.60;;;;;;4990580;29;20050;-70
2021/09/27 04:41:07;;;;;;;18.73;17.23;;;12.50;92.50;;;;;;5007219;29;20470;-68
2021/09/27 04:44:04;;;;;;;18.38;16.95;;;12.50;92.70;;;;;;5010600;29;20705;-69
2021/09/27 04:47:08;;;;;;;18.38;16.98;;;12.50;93.00;;;;;;5007633;29;20128;-68
2021/09/27 04:49:59;;;;;;;18.38;16.80;;;12.50;93.00;;;;;;4983374;29;20053;-69
2021/09/27 04:52:49;;;;;;;18.13;16.63;;;12.50;93.30;;;;;;5010220;29;20054;-68
2021/09/27 04:56:02;;;;;;;18.38;16.92;;;12.40;93.00;;;;;;5007464;29;20144;-69
2021/09/27 04:58:46;;;;;;;17.95;16.55;;;12.40;92.90;;;;;;5010453;29;20049;-68
2021/09/27 05:01:56;;;;;;;19.30;17.80;;;12.50;92.80;;;;;;5010172;29;20136;-69
2021/09/27 05:04:35;;;;;;;19.88;18.17;;;12.50;93.10;;;;;;5010171;29;20186;-68
2021/09/27 05:07:37;;;;;;;18.63;17.13;;;12.50;93.50;;;;;;5007430;29;20073;-69
2021/09/27 05:10:34;;;;;;;18.40;16.92;;;12.60;93.30;;;;;;5008595;29;20056;-69
2021/09/27 05:13:25;;;;;;;18.85;17.30;;;12.60;92.60;;;;;;5008511;29;20056;-70
2021/09/27 05:16:02;;;;;;;18.52;17.02;;;12.50;92.60;;;;;;5009437;29;20049;-70
2021/09/27 05:19:05;;;;;;;18.80;17.30;;;12.50;92.80;;;;;;5011571;29;20621;-70
2021/09/27 05:22:03;;;;;;;19.63;17.92;;;12.50;92.90;;;;;;5010005;29;20423;-70
2021/09/27 05:24:53;;;;;;;18.80;17.20;;;12.50;92.90;;;;;;5009215;29;20060;-70
2021/09/27 05:27:40;;;;;;;17.85;16.35;;;12.40;93.30;;;;;;5007021;29;20947;-69
2021/09/27 05:30:40;;;;;;;18.40;16.98;;;12.50;93.40;;;;;;5007911;29;20061;-69
2021/09/27 05:33:35;;;;;;;17.00;15.68;;;12.50;93.90;;;;;;5013247;29;20132;-69
2021/09/27 05:36:24;;;;;;;17.85;16.35;;;12.50;93.90;;;;;;5012185;29;20136;-71
2021/09/27 05:39:27;;;;;;;17.83;16.38;;;12.50;93.60;;;;;;4995196;29;20479;-69
2021/09/27 05:42:22;;;;;;;17.00;15.65;;;12.60;93.30;;;;;;5009055;29;20144;-68
2021/09/27 05:45:05;;;;;;;17.15;15.75;;;12.60;93.70;;;;;;5009717;29;20042;-69
2021/09/27 05:47:49;;;;;;;17.95;16.33;;;12.50;93.90;;;;;;5010098;29;20050;-69
2021/09/27 05:50:47;;;;;;;17.25;15.85;;;12.60;94.40;;;;;;4994191;29;20128;-69
2021/09/27 05:53:39;;;;;;;18.88;17.38;;;12.60;94.40;;;;;;5010645;29;20707;-69
2021/09/27 05:56:29;;;;;;;17.67;16.27;;;12.60;93.80;;;;;;5008569;29;20165;-69
2021/09/27 05:59:14;;;;;;;18.88;17.27;;;12.60;94.30;;;;;;5008795;29;20157;-69
2021/09/27 06:01:57;;;;;;;17.92;16.50;;;12.60;94.00;;;;;;5011383;29;20045;-70
2021/09/27 06:04:35;;;;;;;19.13;17.52;;;12.70;94.10;;;;;;5013062;29;20041;-69
2021/09/27 06:07:15;;;;;;;17.80;16.48;;;12.80;93.50;;;;;;5010381;29;20136;-69
2021/09/27 06:09:53;;;;;;;18.48;16.77;;;12.90;93.50;;;;;;4997497;29;20049;-71
2021/09/27 06:12:45;;;;;;;17.73;16.33;;;13.00;93.70;;;;;;5012733;29;20444;-69
2021/09/27 06:15:17;;;;;;;18.65;17.08;;;13.20;93.10;;;;;;5011719;29;20041;-70
2021/09/27 06:18:06;;;;;;;18.83;17.27;;;13.30;92.70;;;;;;5011592;29;20427;-70
2021/09/27 06:21:21;;;;;;;18.95;17.45;;;13.40;92.30;;;;;;5010506;29;20052;-69
2021/09/27 06:24:02;;;;;;;19.73;18.08;;;13.60;92.30;;;;;;5011274;29;20076;-70
2021/09/27 06:26:44;;;;;;;18.35;16.95;;;13.70;92.80;;;;;;5010226;29;20081;-69
2021/09/27 06:29:30;;;;;;;19.10;17.60;;;13.70;92.50;;;;;;5013843;29;20129;-71
2021/09/27 06:32:19;;;;;;;19.10;17.58;;;13.80;92.00;;;;;;5011024;29;20603;-71
2021/09/27 06:34:55;;;;;;;19.50;17.80;;;14.00;91.60;;;;;;5010341;29;20054;-69
2021/09/27 06:37:29;;;;;;;19.33;17.83;;;14.20;91.50;;;;;;5012876;29;20109;-70
2021/09/27 06:40:08;;;;;;;18.60;17.10;;;14.20;90.00;;;;;;5014169;29;20098;-70
2021/09/27 06:42:40;;;;;;;19.10;17.60;;;14.30;90.10;;;;;;5010872;29;20060;-70
2021/09/27 06:45:14;;;;;;;20.23;18.63;;;14.40;90.00;;;;;;4993543;29;20589;-70
2021/09/27 06:47:46;;;;;;;20.27;18.67;;;14.50;89.80;;;;;;5011448;29;20174;-70
2021/09/27 06:50:18;;;;;;;19.02;17.52;;;14.60;89.40;;;;;;5012228;29;20045;-72
2021/09/27 06:52:50;;;;;;;19.70;17.90;;;14.60;89.10;;;;;;5010861;29;20160;-70
2021/09/27 06:55:22;;;;;;;19.25;17.67;;;14.50;89.20;;;;;;5012574;29;20834;-70
2021/09/27 06:57:54;;;;;;;19.40;17.75;;;14.50;89.70;;;;;;5012694;29;20052;-70
2021/09/27 07:00:26;;;;;;;19.25;17.75;;;14.40;89.90;;;;;;5011689;29;20054;-70
2021/09/27 07:02:59;;;;;;;19.30;17.63;;;14.40;90.20;;;;;;4997560;29;20154;-69
2021/09/27 07:05:31;;;;;;;18.92;17.45;;;14.50;90.70;;;;;;5011586;29;20097;-70
2021/09/27 07:08:03;;;;;;;18.98;17.38;;;14.50;90.70;;;;;;5012352;29;20049;-70
2021/09/27 07:10:35;;;;;;;18.73;17.20;;;14.60;90.80;;;;;;5011407;29;20125;-69
2021/09/27 07:13:07;;;;;;;18.88;17.38;;;14.60;91.00;;;;;;5000548;29;20137;-70
2021/09/27 07:15:39;;;;;;;19.33;17.65;;;14.60;90.60;;;;;;5010923;29;20041;-70
2021/09/27 07:18:11;;;;;;;18.98;17.48;;;14.50;91.00;;;;;;4992957;29;20404;-69
2021/09/27 07:20:43;;;;;;;20.13;18.13;;;14.60;91.30;;;;;;5011636;29;20867;-69
2021/09/27 07:23:15;;;;;;;19.67;18.08;;;14.70;91.20;;;;;;5001392;29;20057;-70
2021/09/27 07:25:47;;;;;;;19.55;18.05;;;14.70;90.80;;;;;;5012393;29;20763;-69
2021/09/27 07:28:22;;;;;;;19.35;17.65;;;14.70;91.10;;;;;;5012334;29;20085;-69
2021/09/27 07:30:54;;;;;;;19.08;17.48;;;14.70;91.80;;;;;;5011276;29;20703;-70
2021/09/27 07:33:27;;;;;;;19.05;17.65;;;14.80;91.70;;;;;;5012690;29;20059;-69
2021/09/27 07:36:00;;;;;;;18.98;17.55;;;14.90;91.40;;;;;;5008659;29;20538;-69
2021/09/27 07:38:33;;;;;;;19.27;17.77;;;15.10;90.70;;;;;;5011516;29;20464;-70
2021/09/27 07:41:05;;;;;;;19.23;17.58;;;15.10;89.90;;;;;;5011985;29;20599;-71
2021/09/27 07:43:37;;;;;;;19.63;18.08;;;15.10;89.70;;;;;;5009735;29;20225;-71
2021/09/27 07:46:09;;;;;;;19.70;18.20;;;15.10;90.00;;;;;;5011779;29;20073;-70
2021/09/27 07:48:42;;;;;;;19.73;18.13;;;15.10;90.00;;;;;;5011826;29;20060;-70
2021/09/27 07:51:14;;;;;;;19.55;17.95;;;15.10;90.20;;;;;;5010936;29;20054;-71
2021/09/27 07:53:47;;;;;;;18.90;17.50;;;15.40;90.00;;;;;;5011721;29;20129;-69
2021/09/27 07:56:19;;;;;;;19.00;17.60;;;15.60;89.60;;;;;;5009979;29;20667;-69
2021/09/27 07:58:51;;;;;;;19.80;18.20;;;15.80;89.00;;;;;;5011518;29;20132;-70
2021/09/27 08:01:23;;;;;;;19.65;18.25;;;16.00;89.00;;;;;;5011895;29;20058;-69
2021/09/27 08:03:55;;;;;;;19.45;17.95;;;16.20;86.10;;;;;;4995773;29;20054;-70
2021/09/27 08:06:27;;;;;;;20.00;18.50;;;16.30;87.60;;;;;;5010029;29;20168;-71
2021/09/27 08:08:59;;;;;;;19.25;17.75;;;16.40;86.70;;;;;;4994318;29;20056;-70
2021/09/27 08:11:31;;;;;;;20.13;18.63;;;16.60;86.50;;;;;;4993752;29;20060;-70
2021/09/27 08:14:03;;;;;;;20.25;18.75;;;16.70;86.80;;;;;;5012204;29;20053;-70
2021/09/27 08:16:36;;;;;;;20.02;18.52;;;16.90;85.40;;;;;;5005692;29;20077;-71
2021/09/27 08:19:08;;;;;;;20.35;18.83;;;17.00;84.80;;;;;;5012854;29;20144;-70
2021/09/27 08:21:39;;;;;;;20.67;19.08;;;17.10;82.80;;;;;;5011253;29;20057;-70
2021/09/27 08:24:11;;;;;;;20.23;18.67;;;17.20;82.70;;;;;;5010003;29;20061;-71
2021/09/27 08:26:44;;;;;;;20.13;18.45;;;17.30;82.70;;;;;;5009345;29;20128;-70
2021/09/27 08:29:17;;;;;;;20.55;18.95;;;17.40;83.10;;;;;;4992708;29;20137;-70
2021/09/27 08:31:49;;;;;;;19.58;18.17;;;17.50;80.80;;;;;;5013641;29;20049;-70
2021/09/27 08:34:21;;;;;;;19.95;18.48;;;17.50;80.30;;;;;;4993768;29;20136;-70
2021/09/27 08:36:53;;;;;;;19.40;17.98;;;17.60;81.10;;;;;;5008861;29;20136;-70
2021/09/27 08:39:25;;;;;;;20.38;18.77;;;17.70;81.00;;;;;;5010478;29;20049;-71
2021/09/27 08:42:05;;;;;;;20.13;18.63;;;17.90;80.70;;;;;;4978605;29;20056;-70
2021/09/27 08:44:46;;;;;;;20.33;18.73;;;18.00;80.70;;;;;;5009293;29;20532;-70
2021/09/27 08:47:26;;;;;;;20.13;18.60;;;18.10;78.00;;;;;;5009105;29;20106;-70
2021/09/27 08:50:10;;;;;;;20.23;18.75;;;18.20;79.80;;;;;;5011498;29;20073;-70
2021/09/27 08:52:42;;;;;;;20.55;19.05;;;18.30;77.30;;;;;;5007944;29;20073;-71
2021/09/27 08:55:15;;;;;;;21.05;19.45;;;18.30;76.40;;;;;;5007900;29;20163;-70
2021/09/27 08:57:57;;;;;;;20.95;19.35;;;18.30;76.10;;;;;;5007217;29;20152;-71
2021/09/27 09:00:49;;;;;;;20.80;19.20;;;18.50;80.50;;;;;;4995207;29;20076;-70
2021/09/27 09:03:54;;;;;;;20.48;18.98;;;18.60;79.00;;;;;;5007778;29;20052;-69
2021/09/27 09:06:36;;;;;;;20.83;19.23;;;18.70;79.70;;;;;;4993732;29;20638;-70
2021/09/27 09:09:18;;;;;;;20.95;19.25;;;18.80;79.10;;;;;;4989981;29;20101;-70
2021/09/27 09:11:57;;;;;;;21.10;19.30;;;18.80;75.70;;;;;;5010392;29;20041;-71
2021/09/27 09:14:41;;;;;;;21.50;19.92;;;19.00;77.30;;;;;;5009238;29;20050;-70
2021/09/27 09:17:26;;;;;;;20.67;19.08;;;19.00;77.30;;;;;;5008372;29;20405;-70
2021/09/27 09:20:01;;;;;;;20.77;19.17;;;19.10;78.50;;;;;;5009313;29;20049;-70
2021/09/27 09:22:39;;;;;;;20.63;19.13;;;19.30;78.10;;;;;;5009400;29;20110;-70
2021/09/27 09:25:29;;;;;;;21.42;19.63;;;19.40;74.20;;;;;;5008201;29;20073;-70
2021/09/27 09:28:06;;;;;;;21.15;19.55;;;19.40;77.20;;;;;;5008627;29;20113;-70
2021/09/27 09:31:04;;;;;;;20.63;18.88;;;19.60;77.40;;;;;;5009339;29;20128;-70
2021/09/27 09:33:42;;;;;;;20.40;18.83;;;19.60;75.60;;;;;;5007962;29;20064;-71
2021/09/27 09:36:20;;;;;;;21.17;19.42;;;19.70;74.40;;;;;;5007088;29;20114;-71
2021/09/27 09:38:53;;;;;;;21.10;19.33;;;19.80;75.00;;;;;;5009012;29;20053;-70
2021/09/27 09:41:49;;;;;;;20.42;18.80;;;19.80;76.10;;;;;;5006628;29;20053;-71
2021/09/27 09:44:37;;;;;;;21.85;20.05;;;19.90;74.90;;;;;;5003614;29;20666;-71
2021/09/27 09:47:18;;;;;;;21.38;19.83;;;20.00;74.40;;;;;;5004786;29;20042;-70
2021/09/27 09:50:05;;;;;;;20.95;19.45;;;20.00;74.60;;;;;;5005832;29;20046;-70
2021/09/27 09:52:50;;;;;;;20.67;19.08;;;20.10;76.60;;;;;;5005040;29;20243;-70
2021/09/27 09:55:28;;;;;;;20.92;19.40;;;20.20;75.70;;;;;;5004098;29;20148;-70
2021/09/27 09:58:12;;;;;;;21.98;20.38;;;20.30;76.70;;;;;;5004669;29;20128;-70
2021/09/27 10:00:59;;;;;;;22.48;20.85;;;20.40;75.50;;;;;;5004763;29;20140;-70
2021/09/27 10:03:42;;;;;;;21.90;20.30;;;20.50;75.40;;;;;;5006485;29;20041;-70
2021/09/27 10:06:22;;;;;;;23.13;21.33;;;20.60;75.80;;;;;;5003878;29;20058;-70
2021/09/27 10:08:59;;;;;;;23.50;21.80;;;20.70;75.70;;;;;;5001056;29;20050;-70
2021/09/27 10:11:35;;;;;;;23.63;21.92;;;20.70;74.90;;;;;;5004234;29;20054;-70
2021/09/27 10:14:29;;;;;;;22.05;20.35;;;20.90;75.00;;;;;;4989441;29;20607;-72
2021/09/27 10:17:18;;;;;;;23.35;21.58;;;20.90;75.60;;;;;;5005315;29;20054;-72
2021/09/27 10:19:59;;;;;;;22.55;20.90;;;21.00;75.20;;;;;;5010847;29;20049;-70
2021/09/27 10:22:36;;;;;;;22.15;20.55;;;21.00;74.90;;;;;;5009153;29;20054;-70
2021/09/27 10:25:28;;;;;;;22.65;20.85;;;21.10;74.60;;;;;;4993965;29;20125;-70
2021/09/27 10:28:03;;;;;;;21.98;20.38;;;21.20;74.70;;;;;;5007643;29;20046;-70
2021/09/27 10:30:56;;;;;;;23.20;21.40;;;21.30;73.90;;;;;;5005981;29;20394;-71
2021/09/27 10:33:33;;;;;;;22.75;21.13;;;21.40;74.20;;;;;;5007195;29;20057;-71
2021/09/27 10:36:10;;;;;;;22.67;20.98;;;21.50;73.70;;;;;;5006949;29;20543;-71
2021/09/27 10:38:53;;;;;;;23.48;21.65;;;21.50;72.00;;;;;;5007931;29;20121;-71
2021/09/27 10:41:35;;;;;;;23.50;21.70;;;21.50;73.30;;;;;;5006713;29;20054;-70
2021/09/27 10:44:19;;;;;;;23.80;21.85;;;21.70;74.60;;;;;;5007883;29;20129;-71
2021/09/27 10:46:54;;;;;;;23.17;21.48;;;21.70;73.10;;;;;;5008138;29;20045;-71
2021/09/27 10:49:30;;;;;;;23.60;21.80;;;21.80;72.60;;;;;;5008775;29;20057;-70
2021/09/27 10:52:17;;;;;;;24.00;22.20;;;21.90;72.40;;;;;;5009120;29;20531;-70
2021/09/27 10:55:08;;;;;;;23.30;21.60;;;21.90;74.80;;;;;;5008133;29;20046;-71
2021/09/27 10:58:01;;;;;;;23.20;21.48;;;21.80;70.90;;;;;;5005642;29;20046;-71
2021/09/27 11:00:39;;;;;;;22.70;20.98;;;21.70;72.50;;;;;;5006770;29;20048;-70
2021/09/27 11:03:25;;;;;;;21.85;19.98;;;21.60;72.20;;;;;;5009331;29;20112;-70
2021/09/27 11:06:31;;;;;;;23.63;21.83;;;21.50;73.70;;;;;;5008017;29;20555;-70
2021/09/27 11:09:11;;;;;;;22.92;21.23;;;21.50;73.90;;;;;;5009090;29;20057;-70
2021/09/27 11:11:45;;;;;;;;;;;21.60;73.20;;;;;;4991825;29;20052;-71
2021/09/27 11:14:22;;;;;;;22.77;20.88;;;21.60;72.70;;;;;;5007207;29;19932;-70
2021/09/27 11:17:14;;;;;;;23.77;21.95;;;21.50;73.90;;;;;;5007314;29;20153;-70
2021/09/27 11:20:14;;;;;;;22.58;20.90;;;21.70;73.60;;;;;;5008170;29;20064;-70
2021/09/27 11:22:55;;;;;;;;;;;21.80;72.70;;;;;;5008095;29;20483;-71
2021/09/27 11:25:33;;;;;;;22.45;20.73;;;21.70;72.50;;;;;;5007049;29;20523;-70
2021/09/27 11:28:11;;;;;;;22.73;21.10;;;21.60;71.20;;;;;;5005812;29;20054;-70
2021/09/27 11:30:58;;;;;;;22.73;20.92;;;21.70;72.90;;;;;;5005629;29;20775;-70
2021/09/27 11:33:30;;;;;;;21.75;20.15;;;21.70;71.70;;;;;;5007919;29;20061;-70
2021/09/27 11:36:12;;;;;;;21.98;20.38;;;21.50;70.90;;;;;;5006278;29;20974;-72
2021/09/27 11:38:49;;;;;;;22.35;20.75;;;21.30;71.50;;;;;;5008522;29;20181;-70
2021/09/27 11:41:21;;;;;;;21.25;19.63;;;21.20;72.80;;;;;;5006475;29;20580;-70
2021/09/27 11:44:05;;;;;;;21.80;20.30;;;21.20;71.30;;;;;;5006985;29;20190;-69
2021/09/27 11:46:37;;;;;;;21.27;19.77;;;21.10;71.70;;;;;;5007452;29;20054;-69
2021/09/27 11:49:21;;;;;;;21.67;20.05;;;20.90;73.30;;;;;;5008344;29;20722;-69
2021/09/27 11:52:32;;;;;;;22.65;20.95;;;20.80;73.80;;;;;;5003077;29;20050;-69
2021/09/27 11:55:18;;;;;;;21.92;20.10;;;20.90;73.70;;;;;;5006011;29;20054;-70
2021/09/27 11:58:13;;;;;;;21.48;19.88;;;20.90;74.60;;;;;;5004491;29;20185;-69
2021/09/27 12:00:56;;;;;;;21.48;19.77;;;20.80;72.20;;;;;;5000883;29;20057;-69
2021/09/27 12:03:46;;;;;;;22.60;20.70;;;20.70;74.30;;;;;;5007109;29;20490;-69
2021/09/27 12:06:20;;;;;;;;;;;20.70;74.40;;;;;;5004731;29;20053;-69
2021/09/27 12:09:01;;;;;;;21.77;20.17;;;20.60;75.30;;;;;;5004758;29;20484;-70
2021/09/27 12:11:44;;;;;;;21.20;19.50;;;20.60;74.40;;;;;;5006672;29;20334;-70
2021/09/27 12:14:35;;;;;;;21.40;19.80;;;20.70;73.70;;;;;;5007928;29;20057;-69
2021/09/27 12:17:12;;;;;;;21.33;19.52;;;20.70;73.30;;;;;;5008012;29;20102;-69
2021/09/27 12:19:55;;;;;;;21.17;19.48;;;20.90;72.10;;;;;;5007446;29;20133;-68
2021/09/27 12:22:32;;;;;;;20.83;19.23;;;20.80;71.50;;;;;;5006332;29;20780;-71
2021/09/27 12:25:14;;;;;;;20.50;19.10;;;20.80;72.60;;;;;;5005167;29;20041;-69
2021/09/27 12:27:56;;;;;;;21.13;19.60;;;20.70;72.10;;;;;;5004933;29;20053;-69
2021/09/27 12:30:32;;;;;;;21.58;20.08;;;20.60;70.80;;;;;;5004950;29;20081;-69
2021/09/27 12:33:08;;;;;;;21.05;19.45;;;20.70;71.80;;;;;;5004960;29;20521;-69
2021/09/27 12:35:46;;;;;;;21.85;20.05;;;20.80;72.60;;;;;;5005062;29;20103;-69
2021/09/27 12:38:19;;;;;;;21.98;20.27;;;20.90;72.90;;;;;;5006846;29;20049;-72
2021/09/27 12:40:53;;;;;;;23.40;21.15;;;21.00;73.30;;;;;;5003720;29;20545;-70
2021/09/27 12:43:31;;;;;;;22.58;20.88;;;21.10;73.50;;;;;;4996518;29;20788;-70
2021/09/27 12:46:22;;;;;;;21.95;20.35;;;21.10;72.60;;;;;;5002363;29;20065;-69
2021/09/27 12:48:57;;;;;;;22.10;20.50;;;21.20;73.30;;;;;;5006875;29;20046;-71
2021/09/27 12:51:34;;;;;;;21.08;19.42;;;21.00;70.70;;;;;;5002948;29;20131;-70
2021/09/27 12:54:23;;;;;;;21.73;19.88;;;21.00;71.70;;;;;;4988516;29;20045;-69
2021/09/27 12:56:57;;;;;;;21.65;20.05;;;20.90;71.40;;;;;;5004936;29;20042;-69
2021/09/27 12:59:32;;;;;;;21.63;20.02;;;20.90;70.70;;;;;;4995730;29;20527;-69
2021/09/27 13:02:10;;;;;;;22.05;20.45;;;20.90;71.40;;;;;;5004666;29;20069;-70
2021/09/27 13:04:49;;;;;;;21.05;19.45;;;21.00;72.90;;;;;;5007082;29;20531;-68
2021/09/27 13:07:23;;;;;;;21.30;19.80;;;20.90;70.10;;;;;;5003813;29;20178;-69
2021/09/27 13:10:09;;;;;;;20.92;19.33;;;20.90;70.30;;;;;;5004105;29;20089;-70
2021/09/27 13:13:04;;;;;;;21.67;20.08;;;21.00;69.80;;;;;;5004120;29;20049;-68
2021/09/27 13:15:51;;;;;;;21.27;19.67;;;21.00;69.90;;;;;;5002977;29;20161;-70
2021/09/27 13:18:44;;;;;;;21.27;19.65;;;21.00;69.40;;;;;;4994483;29;20049;-69
2021/09/27 13:21:36;;;;;;;21.08;19.48;;;21.10;69.40;;;;;;5003503;29;20046;-69
2021/09/27 13:24:10;;;;;;;21.45;19.85;;;21.20;67.00;;;;;;5007016;29;20060;-70
2021/09/27 13:26:50;;;;;;;20.83;19.13;;;21.20;68.70;;;;;;4994957;29;20137;-69
2021/09/27 13:29:50;;;;;;;21.50;19.88;;;21.40;70.20;;;;;;4995076;29;20074;-70
2021/09/27 13:32:24;;;;;;;20.52;19.02;;;21.40;67.90;;;;;;5005648;29;20069;-69
2021/09/27 13:35:05;;;;;;;20.83;19.25;;;21.50;67.10;;;;;;5005601;29;20156;-69
2021/09/27 13:37:43;;;;;;;20.80;19.30;;;21.50;66.90;;;;;;5004313;29;20064;-69
2021/09/27 13:40:38;;;;;;;21.30;19.80;;;21.50;67.40;;;;;;5003700;29;20136;-70
2021/09/27 13:43:25;;;;;;;20.83;19.33;;;21.40;66.50;;;;;;5006260;29;20069;-70
2021/09/27 13:45:59;;;;;;;21.17;19.58;;;21.40;67.70;;;;;;5003156;29;20046;-69